sensor_id;sensor_type;location;lat;lon;timestamp;temperature;humidity
58993;DHT22;44782;0.000;0.000;2022-08-25T00:01:19;26.10;52.90
58993;DHT22;44782;0.000;0.000;2022-08-25T00:03:35;26.20;52.80
58993;DHT22;44782;0.000;0.000;2022-08-25T00:05:51;26.10;53.00
58993;DHT22;44782;0.000;0.000;2022-08-25T00:08:06;26.10;52.90
58993;DHT22;44782;0.000;0.000;2022-08-25T00:10:22;26.10;52.90
58993;DHT22;44782;0.000;0.000;2022-08-25T00:12:38;26.10;53.60
58993;DHT22;44782;0.000;0.000;2022-08-25T00:14:53;26.10;52.90
58993;DHT22;44782;0.000;0.000;2022-08-25T00:17:09;26.10;53.50
58993;DHT22;44782;0.000;0.000;2022-08-25T00:19:28;26.10;52.80
58993;DHT22;44782;0.000;0.000;2022-08-25T00:21:44;26.10;52.70
58993;DHT22;44782;0.000;0.000;2022-08-25T00:24:01;26.10;52.80
58993;DHT22;44782;0.000;0.000;2022-08-25T00:26:18;26.10;52.80
58993;DHT22;44782;0.000;0.000;2022-08-25T00:28:33;26.10;52.70
58993;DHT22;44782;0.000;0.000;2022-08-25T00:30:50;26.10;52.70
58993;DHT22;44782;0.000;0.000;2022-08-25T00:33:05;26.10;52.70
58993;DHT22;44782;0.000;0.000;2022-08-25T00:35:21;26.10;52.70
58993;DHT22;44782;0.000;0.000;2022-08-25T00:37:37;26.10;52.70
58993;DHT22;44782;0.000;0.000;2022-08-25T00:39:53;26.10;52.70
58993;DHT22;44782;0.000;0.000;2022-08-25T00:42:11;26.10;52.60
58993;DHT22;44782;0.000;0.000;2022-08-25T00:44:32;26.00;52.60
58993;DHT22;44782;0.000;0.000;2022-08-25T00:46:51;26.10;52.50
58993;DHT22;44782;0.000;0.000;2022-08-25T00:49:36;26.00;52.60
58993;DHT22;44782;0.000;0.000;2022-08-25T00:51:58;26.00;52.40
58993;DHT22;44782;0.000;0.000;2022-08-25T00:54:19;26.00;52.60
58993;DHT22;44782;0.000;0.000;2022-08-25T00:56:37;26.00;52.70
58993;DHT22;44782;0.000;0.000;2022-08-25T00:58:52;26.00;52.70
58993;DHT22;44782;0.000;0.000;2022-08-25T01:01:08;26.00;52.70
58993;DHT22;44782;0.000;0.000;2022-08-25T01:03:26;26.00;52.70
58993;DHT22;44782;0.000;0.000;2022-08-25T01:05:42;26.00;52.70
58993;DHT22;44782;0.000;0.000;2022-08-25T01:07:59;26.00;52.70
58993;DHT22;44782;0.000;0.000;2022-08-25T01:10:18;26.00;52.70
58993;DHT22;44782;0.000;0.000;2022-08-25T01:12:36;25.90;52.60
58993;DHT22;44782;0.000;0.000;2022-08-25T01:14:52;25.90;52.60
58993;DHT22;44782;0.000;0.000;2022-08-25T01:17:08;25.90;52.60
58993;DHT22;44782;0.000;0.000;2022-08-25T01:19:26;26.00;52.70
58993;DHT22;44782;0.000;0.000;2022-08-25T01:21:45;25.90;52.60
58993;DHT22;44782;0.000;0.000;2022-08-25T01:24:02;25.90;52.60
58993;DHT22;44782;0.000;0.000;2022-08-25T01:26:21;25.90;52.70
58993;DHT22;44782;0.000;0.000;2022-08-25T01:28:39;25.90;52.70
58993;DHT22;44782;0.000;0.000;2022-08-25T01:31:15;25.90;52.70
58993;DHT22;44782;0.000;0.000;2022-08-25T01:33:31;25.90;52.80
58993;DHT22;44782;0.000;0.000;2022-08-25T01:35:47;25.90;52.80
58993;DHT22;44782;0.000;0.000;2022-08-25T01:38:04;25.90;52.80
58993;DHT22;44782;0.000;0.000;2022-08-25T01:40:20;25.90;52.80
58993;DHT22;44782;0.000;0.000;2022-08-25T01:43:01;25.90;52.90
58993;DHT22;44782;0.000;0.000;2022-08-25T01:45:17;25.90;52.80
58993;DHT22;44782;0.000;0.000;2022-08-25T01:47:33;25.90;52.90
58993;DHT22;44782;0.000;0.000;2022-08-25T01:49:49;25.80;52.80
58993;DHT22;44782;0.000;0.000;2022-08-25T01:52:49;25.90;52.90
58993;DHT22;44782;0.000;0.000;2022-08-25T01:54:56;25.90;52.80
58993;DHT22;44782;0.000;0.000;2022-08-25T01:57:12;25.80;53.00
58993;DHT22;44782;0.000;0.000;2022-08-25T01:59:27;25.80;53.00
58993;DHT22;44782;0.000;0.000;2022-08-25T02:01:43;25.80;53.00
58993;DHT22;44782;0.000;0.000;2022-08-25T02:03:59;25.80;52.90
58993;DHT22;44782;0.000;0.000;2022-08-25T02:06:23;25.80;52.90
58993;DHT22;44782;0.000;0.000;2022-08-25T02:08:42;25.80;52.90
58993;DHT22;44782;0.000;0.000;2022-08-25T02:10:57;25.80;52.90
58993;DHT22;44782;0.000;0.000;2022-08-25T02:13:14;25.80;52.90
58993;DHT22;44782;0.000;0.000;2022-08-25T02:15:30;25.80;52.90
58993;DHT22;44782;0.000;0.000;2022-08-25T02:17:46;25.80;53.00
58993;DHT22;44782;0.000;0.000;2022-08-25T02:20:04;25.80;52.90
58993;DHT22;44782;0.000;0.000;2022-08-25T02:22:21;25.80;52.90
58993;DHT22;44782;0.000;0.000;2022-08-25T02:24:36;25.80;52.90
58993;DHT22;44782;0.000;0.000;2022-08-25T02:26:52;25.80;53.00
58993;DHT22;44782;0.000;0.000;2022-08-25T02:29:09;25.80;52.90
58993;DHT22;44782;0.000;0.000;2022-08-25T02:31:26;25.80;52.90
58993;DHT22;44782;0.000;0.000;2022-08-25T02:33:42;25.80;52.80
58993;DHT22;44782;0.000;0.000;2022-08-25T02:36:02;25.80;52.80
58993;DHT22;44782;0.000;0.000;2022-08-25T02:38:17;25.80;52.80
58993;DHT22;44782;0.000;0.000;2022-08-25T02:40:33;25.80;52.90
58993;DHT22;44782;0.000;0.000;2022-08-25T02:42:49;25.80;52.90
58993;DHT22;44782;0.000;0.000;2022-08-25T02:45:07;25.70;52.80
58993;DHT22;44782;0.000;0.000;2022-08-25T02:47:22;25.70;52.80
58993;DHT22;44782;0.000;0.000;2022-08-25T02:49:39;25.70;52.80
58993;DHT22;44782;0.000;0.000;2022-08-25T02:51:54;25.70;52.80
58993;DHT22;44782;0.000;0.000;2022-08-25T02:54:10;25.70;52.90
58993;DHT22;44782;0.000;0.000;2022-08-25T02:56:26;25.70;52.80
58993;DHT22;44782;0.000;0.000;2022-08-25T02:58:43;25.70;52.80
58993;DHT22;44782;0.000;0.000;2022-08-25T03:01:00;25.70;52.90
58993;DHT22;44782;0.000;0.000;2022-08-25T03:03:15;25.70;52.90
58993;DHT22;44782;0.000;0.000;2022-08-25T03:05:31;25.70;52.90
58993;DHT22;44782;0.000;0.000;2022-08-25T03:07:47;25.70;52.90
58993;DHT22;44782;0.000;0.000;2022-08-25T03:10:05;25.70;52.90
58993;DHT22;44782;0.000;0.000;2022-08-25T03:12:21;25.70;53.00
58993;DHT22;44782;0.000;0.000;2022-08-25T03:14:37;25.70;53.00
58993;DHT22;44782;0.000;0.000;2022-08-25T03:16:53;25.70;52.90
58993;DHT22;44782;0.000;0.000;2022-08-25T03:19:09;25.70;53.00
58993;DHT22;44782;0.000;0.000;2022-08-25T03:21:26;25.70;53.60
58993;DHT22;44782;0.000;0.000;2022-08-25T03:23:42;25.70;52.90
58993;DHT22;44782;0.000;0.000;2022-08-25T03:25:57;25.70;53.00
58993;DHT22;44782;0.000;0.000;2022-08-25T03:28:32;25.70;53.00
58993;DHT22;44782;0.000;0.000;2022-08-25T03:30:48;25.70;53.00
58993;DHT22;44782;0.000;0.000;2022-08-25T03:33:03;25.60;52.80
58993;DHT22;44782;0.000;0.000;2022-08-25T03:35:19;25.60;52.80
58993;DHT22;44782;0.000;0.000;2022-08-25T03:37:35;25.60;52.80
58993;DHT22;44782;0.000;0.000;2022-08-25T03:39:51;25.60;52.80
58993;DHT22;44782;0.000;0.000;2022-08-25T03:42:07;25.60;52.80
58993;DHT22;44782;0.000;0.000;2022-08-25T03:44:22;25.60;52.80
58993;DHT22;44782;0.000;0.000;2022-08-25T03:46:44;25.60;52.80
58993;DHT22;44782;0.000;0.000;2022-08-25T03:49:01;25.60;52.80
58993;DHT22;44782;0.000;0.000;2022-08-25T03:51:39;25.60;52.90
58993;DHT22;44782;0.000;0.000;2022-08-25T03:53:56;25.60;52.90
58993;DHT22;44782;0.000;0.000;2022-08-25T03:56:13;25.60;52.90
58993;DHT22;44782;0.000;0.000;2022-08-25T03:58:28;25.60;52.90
58993;DHT22;44782;0.000;0.000;2022-08-25T04:00:44;25.60;52.90
58993;DHT22;44782;0.000;0.000;2022-08-25T04:03:00;25.60;52.90
58993;DHT22;44782;0.000;0.000;2022-08-25T04:05:16;25.60;52.90
58993;DHT22;44782;0.000;0.000;2022-08-25T04:07:31;25.60;52.90
58993;DHT22;44782;0.000;0.000;2022-08-25T04:09:47;25.60;52.90
58993;DHT22;44782;0.000;0.000;2022-08-25T04:12:03;25.60;52.90
58993;DHT22;44782;0.000;0.000;2022-08-25T04:14:19;25.60;52.90
58993;DHT22;44782;0.000;0.000;2022-08-25T04:16:35;25.50;52.90
58993;DHT22;44782;0.000;0.000;2022-08-25T04:18:52;25.60;52.90
58993;DHT22;44782;0.000;0.000;2022-08-25T04:21:09;25.60;52.90
58993;DHT22;44782;0.000;0.000;2022-08-25T04:23:26;25.50;53.00
58993;DHT22;44782;0.000;0.000;2022-08-25T04:25:41;25.60;52.90
58993;DHT22;44782;0.000;0.000;2022-08-25T04:27:57;25.50;52.90
58993;DHT22;44782;0.000;0.000;2022-08-25T04:30:13;25.50;52.90
58993;DHT22;44782;0.000;0.000;2022-08-25T04:32:29;25.50;53.00
58993;DHT22;44782;0.000;0.000;2022-08-25T04:34:46;25.50;52.90
58993;DHT22;44782;0.000;0.000;2022-08-25T04:37:04;25.50;52.90
58993;DHT22;44782;0.000;0.000;2022-08-25T04:39:20;25.50;53.00
58993;DHT22;44782;0.000;0.000;2022-08-25T04:41:36;25.50;53.00
58993;DHT22;44782;0.000;0.000;2022-08-25T04:43:52;25.50;53.00
58993;DHT22;44782;0.000;0.000;2022-08-25T04:46:17;25.50;53.00
58993;DHT22;44782;0.000;0.000;2022-08-25T04:48:33;25.50;53.00
58993;DHT22;44782;0.000;0.000;2022-08-25T04:50:49;25.50;53.00
58993;DHT22;44782;0.000;0.000;2022-08-25T04:53:05;25.50;53.00
58993;DHT22;44782;0.000;0.000;2022-08-25T04:55:21;25.50;53.00
58993;DHT22;44782;0.000;0.000;2022-08-25T04:57:36;25.50;53.10
58993;DHT22;44782;0.000;0.000;2022-08-25T04:59:52;25.50;53.70
58993;DHT22;44782;0.000;0.000;2022-08-25T05:02:08;25.50;53.00
58993;DHT22;44782;0.000;0.000;2022-08-25T05:04:24;25.50;52.80
58993;DHT22;44782;0.000;0.000;2022-08-25T05:06:40;25.50;52.70
58993;DHT22;44782;0.000;0.000;2022-08-25T05:08:56;25.50;52.50
58993;DHT22;44782;0.000;0.000;2022-08-25T05:11:14;25.50;53.10
58993;DHT22;44782;0.000;0.000;2022-08-25T05:13:31;25.40;52.20
58993;DHT22;44782;0.000;0.000;2022-08-25T05:15:55;25.40;52.10
58993;DHT22;44782;0.000;0.000;2022-08-25T05:18:11;25.40;51.90
58993;DHT22;44782;0.000;0.000;2022-08-25T05:20:27;25.40;52.00
58993;DHT22;44782;0.000;0.000;2022-08-25T05:22:45;25.40;52.60
58993;DHT22;44782;0.000;0.000;2022-08-25T05:25:00;25.40;52.60
58993;DHT22;44782;0.000;0.000;2022-08-25T05:27:17;25.40;51.90
58993;DHT22;44782;0.000;0.000;2022-08-25T05:29:32;25.40;51.80
58993;DHT22;44782;0.000;0.000;2022-08-25T05:31:48;25.40;51.70
58993;DHT22;44782;0.000;0.000;2022-08-25T05:34:05;25.30;51.50
58993;DHT22;44782;0.000;0.000;2022-08-25T05:36:23;25.30;51.40
58993;DHT22;44782;0.000;0.000;2022-08-25T05:38:39;25.30;51.50
58993;DHT22;44782;0.000;0.000;2022-08-25T05:41:02;25.20;51.40
58993;DHT22;44782;0.000;0.000;2022-08-25T05:43:18;25.30;51.30
58993;DHT22;44782;0.000;0.000;2022-08-25T05:45:34;25.20;51.30
58993;DHT22;44782;0.000;0.000;2022-08-25T05:47:50;25.20;51.30
58993;DHT22;44782;0.000;0.000;2022-08-25T05:50:06;25.20;51.20
58993;DHT22;44782;0.000;0.000;2022-08-25T05:52:23;25.20;51.10
58993;DHT22;44782;0.000;0.000;2022-08-25T05:54:40;25.20;51.00
58993;DHT22;44782;0.000;0.000;2022-08-25T05:56:56;25.10;51.00
58993;DHT22;44782;0.000;0.000;2022-08-25T05:59:13;25.10;51.00
58993;DHT22;44782;0.000;0.000;2022-08-25T06:01:28;25.10;50.80
58993;DHT22;44782;0.000;0.000;2022-08-25T06:04:02;25.10;50.80
58993;DHT22;44782;0.000;0.000;2022-08-25T06:06:21;25.10;50.80
58993;DHT22;44782;0.000;0.000;2022-08-25T06:08:36;25.10;50.80
58993;DHT22;44782;0.000;0.000;2022-08-25T06:10:52;25.00;50.80
58993;DHT22;44782;0.000;0.000;2022-08-25T06:13:08;25.00;50.80
58993;DHT22;44782;0.000;0.000;2022-08-25T06:15:24;25.00;50.80
58993;DHT22;44782;0.000;0.000;2022-08-25T06:17:40;25.00;50.80
58993;DHT22;44782;0.000;0.000;2022-08-25T06:19:57;25.00;50.90
58993;DHT22;44782;0.000;0.000;2022-08-25T06:22:12;25.00;50.90
58993;DHT22;44782;0.000;0.000;2022-08-25T06:24:28;25.00;51.00
58993;DHT22;44782;0.000;0.000;2022-08-25T06:26:44;25.00;51.10
58993;DHT22;44782;0.000;0.000;2022-08-25T06:29:00;25.00;51.10
58993;DHT22;44782;0.000;0.000;2022-08-25T06:31:15;25.10;51.40
58993;DHT22;44782;0.000;0.000;2022-08-25T06:33:31;25.00;51.30
58993;DHT22;44782;0.000;0.000;2022-08-25T06:35:47;25.00;51.30
58993;DHT22;44782;0.000;0.000;2022-08-25T06:38:03;25.10;51.40
58993;DHT22;44782;0.000;0.000;2022-08-25T06:40:18;25.10;51.40
58993;DHT22;44782;0.000;0.000;2022-08-25T06:42:34;25.10;51.40
58993;DHT22;44782;0.000;0.000;2022-08-25T06:44:50;25.10;51.50
58993;DHT22;44782;0.000;0.000;2022-08-25T06:47:06;25.10;51.50
58993;DHT22;44782;0.000;0.000;2022-08-25T06:49:22;25.10;51.50
58993;DHT22;44782;0.000;0.000;2022-08-25T06:51:38;25.10;51.50
58993;DHT22;44782;0.000;0.000;2022-08-25T06:53:54;25.10;51.60
58993;DHT22;44782;0.000;0.000;2022-08-25T06:56:10;25.10;51.60
58993;DHT22;44782;0.000;0.000;2022-08-25T06:58:25;25.10;51.60
58993;DHT22;44782;0.000;0.000;2022-08-25T07:00:41;25.10;51.60
58993;DHT22;44782;0.000;0.000;2022-08-25T07:02:58;25.20;51.70
58993;DHT22;44782;0.000;0.000;2022-08-25T07:05:15;25.20;51.70
58993;DHT22;44782;0.000;0.000;2022-08-25T07:07:31;25.20;51.70
58993;DHT22;44782;0.000;0.000;2022-08-25T07:09:47;25.20;51.70
58993;DHT22;44782;0.000;0.000;2022-08-25T07:12:03;25.20;51.80
58993;DHT22;44782;0.000;0.000;2022-08-25T07:14:20;25.20;51.80
58993;DHT22;44782;0.000;0.000;2022-08-25T07:16:37;25.20;51.80
58993;DHT22;44782;0.000;0.000;2022-08-25T07:18:53;25.20;51.80
58993;DHT22;44782;0.000;0.000;2022-08-25T07:21:11;25.20;51.80
58993;DHT22;44782;0.000;0.000;2022-08-25T07:23:28;25.30;51.90
58993;DHT22;44782;0.000;0.000;2022-08-25T07:25:43;25.30;51.80
58993;DHT22;44782;0.000;0.000;2022-08-25T07:27:59;25.30;51.90
58993;DHT22;44782;0.000;0.000;2022-08-25T07:30:16;25.30;51.90
58993;DHT22;44782;0.000;0.000;2022-08-25T07:32:32;25.30;51.90
58993;DHT22;44782;0.000;0.000;2022-08-25T07:34:47;25.30;52.00
58993;DHT22;44782;0.000;0.000;2022-08-25T07:37:21;25.30;51.90
58993;DHT22;44782;0.000;0.000;2022-08-25T07:39:37;25.30;51.90
58993;DHT22;44782;0.000;0.000;2022-08-25T07:41:53;25.30;52.00
58993;DHT22;44782;0.000;0.000;2022-08-25T07:44:10;25.30;51.90
58993;DHT22;44782;0.000;0.000;2022-08-25T07:46:27;25.30;51.80
58993;DHT22;44782;0.000;0.000;2022-08-25T07:48:42;25.30;51.90
58993;DHT22;44782;0.000;0.000;2022-08-25T07:50:58;25.30;51.90
58993;DHT22;44782;0.000;0.000;2022-08-25T07:53:15;25.40;52.00
58993;DHT22;44782;0.000;0.000;2022-08-25T07:55:31;25.40;52.00
58993;DHT22;44782;0.000;0.000;2022-08-25T07:57:47;25.30;51.90
58993;DHT22;44782;0.000;0.000;2022-08-25T08:00:03;25.40;52.00
58993;DHT22;44782;0.000;0.000;2022-08-25T08:02:20;25.40;52.00
58993;DHT22;44782;0.000;0.000;2022-08-25T08:04:36;25.40;51.90
58993;DHT22;44782;0.000;0.000;2022-08-25T08:06:52;25.40;51.90
58993;DHT22;44782;0.000;0.000;2022-08-25T08:09:07;25.40;52.70
58993;DHT22;44782;0.000;0.000;2022-08-25T08:11:26;25.40;51.90
58993;DHT22;44782;0.000;0.000;2022-08-25T08:13:43;25.40;51.80
58993;DHT22;44782;0.000;0.000;2022-08-25T08:15:58;25.40;51.80
58993;DHT22;44782;0.000;0.000;2022-08-25T08:18:14;25.40;51.80
58993;DHT22;44782;0.000;0.000;2022-08-25T08:20:30;25.40;51.70
58993;DHT22;44782;0.000;0.000;2022-08-25T08:22:48;25.40;52.40
58993;DHT22;44782;0.000;0.000;2022-08-25T08:25:05;25.40;51.60
58993;DHT22;44782;0.000;0.000;2022-08-25T08:27:20;25.50;51.70
58993;DHT22;44782;0.000;0.000;2022-08-25T08:29:37;25.50;51.70
58993;DHT22;44782;0.000;0.000;2022-08-25T08:31:53;25.50;51.60
58993;DHT22;44782;0.000;0.000;2022-08-25T08:34:08;25.50;51.60
58993;DHT22;44782;0.000;0.000;2022-08-25T08:36:24;25.50;51.50
58993;DHT22;44782;0.000;0.000;2022-08-25T08:38:41;25.50;51.40
58993;DHT22;44782;0.000;0.000;2022-08-25T08:42:00;25.50;51.40
58993;DHT22;44782;0.000;0.000;2022-08-25T08:46:42;25.50;51.30
58993;DHT22;44782;0.000;0.000;2022-08-25T08:49:02;25.50;51.90
58993;DHT22;44782;0.000;0.000;2022-08-25T08:51:26;25.50;51.90
58993;DHT22;44782;0.000;0.000;2022-08-25T08:54:10;25.50;51.10
58993;DHT22;44782;0.000;0.000;2022-08-25T08:56:35;25.50;51.00
58993;DHT22;44782;0.000;0.000;2022-08-25T08:58:55;25.50;50.70
58993;DHT22;44782;0.000;0.000;2022-08-25T09:01:15;25.50;51.00
58993;DHT22;44782;0.000;0.000;2022-08-25T09:03:41;25.50;50.90
58993;DHT22;44782;0.000;0.000;2022-08-25T09:06:01;25.60;50.80
58993;DHT22;44782;0.000;0.000;2022-08-25T09:08:18;25.50;50.80
58993;DHT22;44782;0.000;0.000;2022-08-25T09:10:44;25.50;51.00
58993;DHT22;44782;0.000;0.000;2022-08-25T09:13:15;25.60;50.70
58993;DHT22;44782;0.000;0.000;2022-08-25T09:21:12;25.60;50.70
58993;DHT22;44782;0.000;0.000;2022-08-25T09:28:34;25.60;50.70
58993;DHT22;44782;0.000;0.000;2022-08-25T09:30:59;25.60;50.70
58993;DHT22;44782;0.000;0.000;2022-08-25T09:33:19;25.60;50.70
58993;DHT22;44782;0.000;0.000;2022-08-25T09:35:38;25.60;50.70
58993;DHT22;44782;0.000;0.000;2022-08-25T09:38:06;25.60;50.70
58993;DHT22;44782;0.000;0.000;2022-08-25T09:40:22;25.60;50.40
58993;DHT22;44782;0.000;0.000;2022-08-25T09:42:49;25.60;50.70
58993;DHT22;44782;0.000;0.000;2022-08-25T09:45:12;25.60;50.50
58993;DHT22;44782;0.000;0.000;2022-08-25T09:47:28;25.60;50.50
58993;DHT22;44782;0.000;0.000;2022-08-25T09:50:14;25.60;50.50
58993;DHT22;44782;0.000;0.000;2022-08-25T09:54:49;25.60;50.70
58993;DHT22;44782;0.000;0.000;2022-08-25T09:57:05;25.60;50.60
58993;DHT22;44782;0.000;0.000;2022-08-25T09:59:35;25.60;50.60
58993;DHT22;44782;0.000;0.000;2022-08-25T10:01:53;25.60;50.30
58993;DHT22;44782;0.000;0.000;2022-08-25T10:04:09;25.60;50.50
58993;DHT22;44782;0.000;0.000;2022-08-25T10:06:27;25.70;50.60
58993;DHT22;44782;0.000;0.000;2022-08-25T10:11:01;25.70;50.60
58993;DHT22;44782;0.000;0.000;2022-08-25T10:13:19;25.70;50.50
58993;DHT22;44782;0.000;0.000;2022-08-25T10:15:36;25.70;50.40
58993;DHT22;44782;0.000;0.000;2022-08-25T10:17:52;25.70;50.40
58993;DHT22;44782;0.000;0.000;2022-08-25T10:20:15;25.70;50.40
58993;DHT22;44782;0.000;0.000;2022-08-25T10:22:31;25.70;50.30
58993;DHT22;44782;0.000;0.000;2022-08-25T10:24:48;25.70;50.50
58993;DHT22;44782;0.000;0.000;2022-08-25T10:34:45;25.70;50.10
58993;DHT22;44782;0.000;0.000;2022-08-25T10:47:44;25.70;50.00
58993;DHT22;44782;0.000;0.000;2022-08-25T11:00:33;25.70;50.30
58993;DHT22;44782;0.000;0.000;2022-08-25T11:05:31;25.70;50.20
58993;DHT22;44782;0.000;0.000;2022-08-25T11:10:26;25.70;50.40
58993;DHT22;44782;0.000;0.000;2022-08-25T11:12:52;25.70;50.40
58993;DHT22;44782;0.000;0.000;2022-08-25T11:15:15;25.70;51.10
58993;DHT22;44782;0.000;0.000;2022-08-25T11:20:11;25.70;50.20
58993;DHT22;44782;0.000;0.000;2022-08-25T11:22:45;25.70;50.40
58993;DHT22;44782;0.000;0.000;2022-08-25T11:25:10;25.70;50.40
58993;DHT22;44782;0.000;0.000;2022-08-25T11:27:36;25.70;50.40
58993;DHT22;44782;0.000;0.000;2022-08-25T11:30:08;25.70;50.40
58993;DHT22;44782;0.000;0.000;2022-08-25T11:32:24;25.70;50.30
58993;DHT22;44782;0.000;0.000;2022-08-25T11:34:40;25.70;50.40
58993;DHT22;44782;0.000;0.000;2022-08-25T11:37:12;25.70;50.40
58993;DHT22;44782;0.000;0.000;2022-08-25T11:50:32;25.70;50.10
58993;DHT22;44782;0.000;0.000;2022-08-25T11:52:53;25.70;50.20
58993;DHT22;44782;0.000;0.000;2022-08-25T11:55:21;25.70;50.20
58993;DHT22;44782;0.000;0.000;2022-08-25T11:57:37;25.70;50.10
58993;DHT22;44782;0.000;0.000;2022-08-25T12:04:43;25.70;49.80
58993;DHT22;44782;0.000;0.000;2022-08-25T12:09:20;25.70;50.00
58993;DHT22;44782;0.000;0.000;2022-08-25T12:11:43;25.70;50.10
58993;DHT22;44782;0.000;0.000;2022-08-25T12:17:04;25.70;49.80
58993;DHT22;44782;0.000;0.000;2022-08-25T12:21:43;25.70;50.00
58993;DHT22;44782;0.000;0.000;2022-08-25T12:26:35;25.70;50.00
58993;DHT22;44782;0.000;0.000;2022-08-25T12:31:24;25.70;50.10
58993;DHT22;44782;0.000;0.000;2022-08-25T12:34:13;25.70;50.00
58993;DHT22;44782;0.000;0.000;2022-08-25T12:36:33;25.70;50.00
58993;DHT22;44782;0.000;0.000;2022-08-25T12:38:49;25.70;50.20
58993;DHT22;44782;0.000;0.000;2022-08-25T12:43:33;25.70;50.30
58993;DHT22;44782;0.000;0.000;2022-08-25T12:45:52;25.80;50.20
58993;DHT22;44782;0.000;0.000;2022-08-25T12:50:44;25.80;50.20
58993;DHT22;44782;0.000;0.000;2022-08-25T12:53:13;25.80;50.40
58993;DHT22;44782;0.000;0.000;2022-08-25T12:55:29;25.80;50.40
58993;DHT22;44782;0.000;0.000;2022-08-25T12:57:54;25.80;50.50
58993;DHT22;44782;0.000;0.000;2022-08-25T13:00:30;25.80;50.40
58993;DHT22;44782;0.000;0.000;2022-08-25T13:13:14;25.90;50.70
58993;DHT22;44782;0.000;0.000;2022-08-25T13:15:40;25.90;50.70
58993;DHT22;44782;0.000;0.000;2022-08-25T13:18:15;25.90;50.80
58993;DHT22;44782;0.000;0.000;2022-08-25T13:20:32;25.90;50.80
58993;DHT22;44782;0.000;0.000;2022-08-25T13:22:50;25.90;50.80
58993;DHT22;44782;0.000;0.000;2022-08-25T13:25:06;25.90;50.80
58993;DHT22;44782;0.000;0.000;2022-08-25T13:27:35;25.90;50.90
58993;DHT22;44782;0.000;0.000;2022-08-25T13:29:57;25.90;50.90
58993;DHT22;44782;0.000;0.000;2022-08-25T13:32:19;25.90;50.90
58993;DHT22;44782;0.000;0.000;2022-08-25T13:34:41;25.90;50.90
58993;DHT22;44782;0.000;0.000;2022-08-25T13:37:08;25.90;50.90
58993;DHT22;44782;0.000;0.000;2022-08-25T13:39:42;26.00;51.00
58993;DHT22;44782;0.000;0.000;2022-08-25T13:41:59;26.00;51.10
58993;DHT22;44782;0.000;0.000;2022-08-25T13:44:16;26.00;51.70
58993;DHT22;44782;0.000;0.000;2022-08-25T13:46:32;26.00;51.00
58993;DHT22;44782;0.000;0.000;2022-08-25T13:48:49;26.00;51.00
58993;DHT22;44782;0.000;0.000;2022-08-25T13:53:31;26.00;51.10
58993;DHT22;44782;0.000;0.000;2022-08-25T13:55:48;26.00;51.10
58993;DHT22;44782;0.000;0.000;2022-08-25T13:58:10;26.00;51.10
58993;DHT22;44782;0.000;0.000;2022-08-25T14:01:10;26.00;51.10
58993;DHT22;44782;0.000;0.000;2022-08-25T14:03:34;26.00;51.00
58993;DHT22;44782;0.000;0.000;2022-08-25T14:06:07;26.00;51.10
58993;DHT22;44782;0.000;0.000;2022-08-25T14:08:34;26.00;51.10
58993;DHT22;44782;0.000;0.000;2022-08-25T14:11:02;26.10;51.20
58993;DHT22;44782;0.000;0.000;2022-08-25T14:15:44;26.10;51.30
58993;DHT22;44782;0.000;0.000;2022-08-25T14:18:08;26.10;51.20
58993;DHT22;44782;0.000;0.000;2022-08-25T14:20:26;26.10;51.20
58993;DHT22;44782;0.000;0.000;2022-08-25T14:22:43;26.10;51.30
58993;DHT22;44782;0.000;0.000;2022-08-25T14:24:58;26.10;51.30
58993;DHT22;44782;0.000;0.000;2022-08-25T14:27:14;26.10;51.30
58993;DHT22;44782;0.000;0.000;2022-08-25T14:29:30;26.10;51.30
58993;DHT22;44782;0.000;0.000;2022-08-25T14:31:46;26.10;51.30
58993;DHT22;44782;0.000;0.000;2022-08-25T14:34:23;26.10;51.30
58993;DHT22;44782;0.000;0.000;2022-08-25T14:36:40;26.10;51.90
58993;DHT22;44782;0.000;0.000;2022-08-25T14:38:57;26.10;51.40
58993;DHT22;44782;0.000;0.000;2022-08-25T14:41:12;26.10;51.40
58993;DHT22;44782;0.000;0.000;2022-08-25T14:43:28;26.10;51.30
58993;DHT22;44782;0.000;0.000;2022-08-25T14:45:46;26.10;51.40
58993;DHT22;44782;0.000;0.000;2022-08-25T14:48:08;26.10;51.40
58993;DHT22;44782;0.000;0.000;2022-08-25T14:50:24;26.10;51.40
58993;DHT22;44782;0.000;0.000;2022-08-25T14:52:41;26.10;51.40
58993;DHT22;44782;0.000;0.000;2022-08-25T14:54:57;26.10;51.40
58993;DHT22;44782;0.000;0.000;2022-08-25T14:57:13;26.10;51.40
58993;DHT22;44782;0.000;0.000;2022-08-25T14:59:29;26.10;51.50
58993;DHT22;44782;0.000;0.000;2022-08-25T15:01:45;26.10;51.50
58993;DHT22;44782;0.000;0.000;2022-08-25T15:04:05;26.10;51.60
58993;DHT22;44782;0.000;0.000;2022-08-25T15:06:22;26.20;51.70
58993;DHT22;44782;0.000;0.000;2022-08-25T15:08:38;26.20;51.70
58993;DHT22;44782;0.000;0.000;2022-08-25T15:11:12;26.20;51.80
58993;DHT22;44782;0.000;0.000;2022-08-25T15:13:32;26.20;51.90
58993;DHT22;44782;0.000;0.000;2022-08-25T15:15:48;26.20;51.90
58993;DHT22;44782;0.000;0.000;2022-08-25T15:18:04;26.20;52.00
58993;DHT22;44782;0.000;0.000;2022-08-25T15:20:19;26.20;52.00
58993;DHT22;44782;0.000;0.000;2022-08-25T15:22:35;26.20;52.00
58993;DHT22;44782;0.000;0.000;2022-08-25T15:24:51;26.20;52.00
58993;DHT22;44782;0.000;0.000;2022-08-25T15:27:06;26.20;52.10
58993;DHT22;44782;0.000;0.000;2022-08-25T15:29:24;26.20;52.10
58993;DHT22;44782;0.000;0.000;2022-08-25T15:31:41;26.20;52.10
58993;DHT22;44782;0.000;0.000;2022-08-25T15:33:57;26.20;52.80
58993;DHT22;44782;0.000;0.000;2022-08-25T15:36:15;26.20;52.10
58993;DHT22;44782;0.000;0.000;2022-08-25T15:38:31;26.20;52.10
58993;DHT22;44782;0.000;0.000;2022-08-25T15:40:49;26.20;52.10
58993;DHT22;44782;0.000;0.000;2022-08-25T15:43:05;26.20;52.10
58993;DHT22;44782;0.000;0.000;2022-08-25T15:45:20;26.20;52.20
58993;DHT22;44782;0.000;0.000;2022-08-25T15:47:36;26.20;52.20
58993;DHT22;44782;0.000;0.000;2022-08-25T15:50:06;26.20;52.20
58993;DHT22;44782;0.000;0.000;2022-08-25T15:52:22;26.20;52.20
58993;DHT22;44782;0.000;0.000;2022-08-25T15:54:38;26.20;52.20
58993;DHT22;44782;0.000;0.000;2022-08-25T15:56:55;26.20;52.20
58993;DHT22;44782;0.000;0.000;2022-08-25T15:59:11;26.20;52.20
58993;DHT22;44782;0.000;0.000;2022-08-25T16:01:27;26.20;52.30
58993;DHT22;44782;0.000;0.000;2022-08-25T16:03:44;26.20;52.20
58993;DHT22;44782;0.000;0.000;2022-08-25T16:06:02;26.20;52.20
58993;DHT22;44782;0.000;0.000;2022-08-25T16:08:19;26.20;52.20
58993;DHT22;44782;0.000;0.000;2022-08-25T16:10:40;26.20;52.30
58993;DHT22;44782;0.000;0.000;2022-08-25T16:12:55;26.20;52.20
58993;DHT22;44782;0.000;0.000;2022-08-25T16:15:11;26.20;52.30
58993;DHT22;44782;0.000;0.000;2022-08-25T16:17:27;26.20;52.30
58993;DHT22;44782;0.000;0.000;2022-08-25T16:19:42;26.20;52.30
58993;DHT22;44782;0.000;0.000;2022-08-25T16:21:59;26.20;52.30
58993;DHT22;44782;0.000;0.000;2022-08-25T16:24:15;26.20;52.30
58993;DHT22;44782;0.000;0.000;2022-08-25T16:26:31;26.20;52.40
58993;DHT22;44782;0.000;0.000;2022-08-25T16:28:47;26.20;52.30
58993;DHT22;44782;0.000;0.000;2022-08-25T16:31:03;26.20;52.40
58993;DHT22;44782;0.000;0.000;2022-08-25T16:33:19;26.20;52.40